createdAt,value
2019-03-26T00:00:23.310Z,11.85
2019-03-26T00:01:26.947Z,11.86
2019-03-26T00:02:30.651Z,11.85
2019-03-26T00:03:34.286Z,11.83
2019-03-26T00:04:37.922Z,11.81
2019-03-26T00:05:41.593Z,11.78
2019-03-26T00:06:45.155Z,11.72
2019-03-26T00:07:48.788Z,11.68
2019-03-26T00:08:52.355Z,11.65
2019-03-26T00:09:55.990Z,11.50
2019-03-26T00:10:59.659Z,11.43
2019-03-26T00:12:03.469Z,11.44
2019-03-26T00:13:07.096Z,11.44
2019-03-26T00:14:10.751Z,11.42
2019-03-26T00:15:14.384Z,11.45
2019-03-26T00:16:18.051Z,11.46
2019-03-26T00:17:21.612Z,11.52
2019-03-26T00:18:25.181Z,11.52
2019-03-26T00:19:28.816Z,11.54
2019-03-26T00:20:32.447Z,11.58
2019-03-26T00:21:36.229Z,11.62
2019-03-26T00:22:39.865Z,11.66
2019-03-26T00:23:43.499Z,11.69
2019-03-26T00:24:47.142Z,11.71
2019-03-26T00:25:50.774Z,11.63
2019-03-26T00:26:54.450Z,11.61
2019-03-26T00:27:58.083Z,11.57
2019-03-26T00:29:01.722Z,11.55
2019-03-26T00:30:06.787Z,11.58
2019-03-26T00:31:10.421Z,11.52
2019-03-26T00:32:14.096Z,11.49
2019-03-26T00:33:17.726Z,11.52
2019-03-26T00:34:21.380Z,11.60
2019-03-26T00:35:24.996Z,11.59
2019-03-26T00:36:28.623Z,11.53
2019-03-26T00:37:32.295Z,11.49
2019-03-26T00:38:36.018Z,11.51
2019-03-26T00:39:39.627Z,11.50
2019-03-26T00:40:43.266Z,11.49
2019-03-26T00:41:46.893Z,11.49
2019-03-26T00:42:50.561Z,11.48
2019-03-26T00:43:54.191Z,11.42
2019-03-26T00:44:57.830Z,11.42
2019-03-26T00:46:01.465Z,11.46
2019-03-26T00:47:05.174Z,11.43
2019-03-26T00:48:08.813Z,11.44
2019-03-26T00:49:12.459Z,11.52
2019-03-26T00:50:16.448Z,11.59
2019-03-26T00:51:20.084Z,11.62
2019-03-26T00:52:23.736Z,11.61
2019-03-26T00:53:27.407Z,11.51
2019-03-26T00:54:31.047Z,11.45
2019-03-26T00:55:34.687Z,11.38
2019-03-26T00:56:38.710Z,11.34
2019-03-26T00:57:42.349Z,11.28
2019-03-26T00:58:46.332Z,11.28
2019-03-26T00:59:49.968Z,11.30
2019-03-26T01:00:53.604Z,11.31
2019-03-26T01:01:57.273Z,11.19
2019-03-26T01:03:00.979Z,11.27
2019-03-26T01:04:04.693Z,11.15
2019-03-26T01:05:08.486Z,11.15
2019-03-26T01:06:12.120Z,11.35
2019-03-26T01:07:15.865Z,11.35
2019-03-26T01:08:19.852Z,11.40
2019-03-26T01:09:23.561Z,11.37
2019-03-26T01:10:27.997Z,11.35
2019-03-26T01:11:31.649Z,11.33
2019-03-26T01:12:35.371Z,11.20
2019-03-26T01:13:39.368Z,11.17
2019-03-26T01:14:43.079Z,11.16
2019-03-26T01:15:46.729Z,11.21
2019-03-26T01:16:50.445Z,11.24
2019-03-26T01:17:54.119Z,11.21
2019-03-26T01:18:57.797Z,11.21
2019-03-26T01:20:01.506Z,11.24
2019-03-26T01:21:05.145Z,11.20
2019-03-26T01:22:08.789Z,11.23
2019-03-26T01:23:12.508Z,11.23
2019-03-26T01:24:16.160Z,11.28
2019-03-26T01:25:19.869Z,11.28
2019-03-26T01:26:23.509Z,11.12
2019-03-26T01:27:27.138Z,11.12
2019-03-26T01:28:30.861Z,10.92
2019-03-26T01:29:34.494Z,10.96
2019-03-26T01:30:38.199Z,10.96
2019-03-26T01:31:41.845Z,11.00
2019-03-26T01:32:45.849Z,11.06
2019-03-26T01:33:49.524Z,11.06
2019-03-26T01:34:53.167Z,11.06
2019-03-26T01:35:56.806Z,11.09
2019-03-26T01:37:00.456Z,11.10
2019-03-26T01:38:04.172Z,11.08
2019-03-26T01:39:08.222Z,11.04
2019-03-26T01:40:11.872Z,11.04
2019-03-26T01:41:15.589Z,11.04
2019-03-26T01:42:19.566Z,11.03
2019-03-26T01:43:23.281Z,11.00
2019-03-26T01:44:26.952Z,11.00
2019-03-26T01:45:30.595Z,10.92
2019-03-26T01:46:34.648Z,10.92
2019-03-26T01:47:38.283Z,10.89
2019-03-26T01:48:41.986Z,10.89
2019-03-26T01:49:46.028Z,10.63
2019-03-26T01:50:49.736Z,10.63
2019-03-26T01:51:53.388Z,10.73
2019-03-26T01:52:57.093Z,10.73
2019-03-26T01:54:00.725Z,10.75
2019-03-26T01:55:06.488Z,10.60
2019-03-26T01:56:10.119Z,10.43
2019-03-26T01:57:13.840Z,10.35
2019-03-26T01:58:17.873Z,10.44
2019-03-26T01:59:21.585Z,10.44
2019-03-26T02:00:25.280Z,10.46
2019-03-26T02:01:28.919Z,10.46
2019-03-26T02:02:32.623Z,10.40
2019-03-26T02:03:36.321Z,10.34
2019-03-26T02:04:40.402Z,10.34
2019-03-26T02:05:44.076Z,10.34
2019-03-26T02:06:47.706Z,10.35
2019-03-26T02:07:51.348Z,10.35
2019-03-26T02:08:54.990Z,10.35
2019-03-26T02:09:58.710Z,10.20
2019-03-26T02:11:02.387Z,10.20
2019-03-26T02:12:06.109Z,10.17
2019-03-26T02:13:10.150Z,10.20
2019-03-26T02:14:14.043Z,10.20
2019-03-26T02:15:29.045Z,10.14
2019-03-26T02:16:33.143Z,10.14
2019-03-26T02:17:36.786Z,10.14
2019-03-26T02:18:40.445Z,10.16
2019-03-26T02:19:44.087Z,10.13
2019-03-26T02:20:47.730Z,10.18
2019-03-26T02:21:51.395Z,10.18
2019-03-26T02:22:55.019Z,10.12
2019-03-26T02:23:58.647Z,10.13
2019-03-26T02:25:02.469Z,10.15
2019-03-26T02:26:06.099Z,10.15
2019-03-26T02:27:09.783Z,10.15
2019-03-26T02:28:13.450Z,10.11
2019-03-26T02:29:17.135Z,10.13
2019-03-26T02:30:20.779Z,10.15
2019-03-26T02:31:24.811Z,10.09
2019-03-26T02:32:28.849Z,10.17
2019-03-26T02:33:32.499Z,10.17
2019-03-26T02:34:36.246Z,10.11
2019-03-26T02:35:39.849Z,10.03
2019-03-26T02:36:43.483Z,10.01
2019-03-26T02:37:47.152Z,10.01
2019-03-26T02:38:50.846Z,9.92
2019-03-26T02:39:54.488Z,9.89
2019-03-26T02:40:58.113Z,9.87
2019-03-26T02:42:02.195Z,9.87
2019-03-26T02:43:05.874Z,9.84
2019-03-26T02:44:09.500Z,9.82
2019-03-26T02:45:13.138Z,9.69
2019-03-26T02:46:16.777Z,9.69
2019-03-26T02:47:20.415Z,9.51
2019-03-26T02:48:24.086Z,9.51
2019-03-26T02:49:27.725Z,9.56
2019-03-26T02:50:31.365Z,9.54
2019-03-26T02:51:35.000Z,9.45
2019-03-26T02:52:38.985Z,9.30
2019-03-26T02:53:42.677Z,9.24
2019-03-26T02:54:46.281Z,9.21
2019-03-26T02:55:49.916Z,9.26
2019-03-26T02:56:53.473Z,9.31
2019-03-26T02:57:57.451Z,9.31
2019-03-26T02:59:01.141Z,9.30
2019-03-26T03:00:07.454Z,9.30
2019-03-26T03:01:11.108Z,9.20
2019-03-26T03:02:14.739Z,9.20
2019-03-26T03:03:18.369Z,9.20
2019-03-26T03:04:21.981Z,9.21
2019-03-26T03:05:34.943Z,9.13
2019-03-26T03:06:30.967Z,9.15
2019-03-26T03:07:34.601Z,9.17
2019-03-26T03:08:38.252Z,9.15
2019-03-26T03:09:41.925Z,9.14
2019-03-26T03:10:45.546Z,9.12
2019-03-26T03:11:49.109Z,9.12
2019-03-26T03:12:52.742Z,9.15
2019-03-26T03:13:56.309Z,9.15
2019-03-26T03:14:59.998Z,9.14
2019-03-26T03:16:03.610Z,9.13
2019-03-26T03:17:07.249Z,9.15
2019-03-26T03:18:10.891Z,9.11
2019-03-26T03:19:16.066Z,9.14
2019-03-26T03:20:20.068Z,9.17
2019-03-26T03:21:23.999Z,9.16
2019-03-26T03:22:28.030Z,9.11
2019-03-26T03:23:31.744Z,9.02
2019-03-26T03:24:35.387Z,9.05
2019-03-26T03:25:39.058Z,9.01
2019-03-26T03:26:42.714Z,8.98
2019-03-26T03:27:46.265Z,9.03
2019-03-26T03:28:49.902Z,9.07
2019-03-26T03:29:53.539Z,9.06
2019-03-26T03:30:57.220Z,9.02
2019-03-26T03:32:01.015Z,8.94
2019-03-26T03:33:04.655Z,9.02
2019-03-26T03:34:08.290Z,9.06
2019-03-26T03:35:12.446Z,9.07
2019-03-26T03:36:16.112Z,9.02
2019-03-26T03:37:19.751Z,9.05
2019-03-26T03:38:23.399Z,9.11
2019-03-26T03:39:27.047Z,9.09
2019-03-26T03:40:30.677Z,9.06
2019-03-26T03:41:34.382Z,8.97
2019-03-26T03:42:38.013Z,8.87
2019-03-26T03:43:41.650Z,8.89
2019-03-26T03:44:45.282Z,8.90
2019-03-26T03:45:48.918Z,8.87
2019-03-26T03:46:54.064Z,8.84
2019-03-26T03:47:58.410Z,8.83
2019-03-26T03:49:02.635Z,8.85
2019-03-26T03:50:07.862Z,8.86
2019-03-26T03:51:13.624Z,8.87
2019-03-26T03:52:18.914Z,8.90
2019-03-26T03:53:23.049Z,8.85
2019-03-26T03:54:27.487Z,8.82
2019-03-26T03:55:31.731Z,8.82
2019-03-26T03:56:37.662Z,8.82
2019-03-26T03:57:41.941Z,8.84
2019-03-26T03:58:47.851Z,8.85
2019-03-26T03:59:53.495Z,8.86
2019-03-26T04:00:57.119Z,8.88
2019-03-26T04:02:00.753Z,8.86
2019-03-26T04:03:05.265Z,8.81
2019-03-26T04:04:08.882Z,8.81
2019-03-26T04:05:12.527Z,8.76
2019-03-26T04:06:16.163Z,8.76
2019-03-26T04:07:20.133Z,8.79
2019-03-26T04:08:24.136Z,8.81
2019-03-26T04:09:27.843Z,8.82
2019-03-26T04:10:31.474Z,8.81
2019-03-26T04:11:35.116Z,8.83
2019-03-26T04:12:38.749Z,8.78
2019-03-26T04:13:42.516Z,8.78
2019-03-26T04:14:46.147Z,8.81
2019-03-26T04:15:50.088Z,8.84
2019-03-26T04:16:53.722Z,8.82
2019-03-26T04:17:57.360Z,8.77
2019-03-26T04:19:01.480Z,8.71
2019-03-26T04:20:05.221Z,8.73
2019-03-26T04:21:08.864Z,8.73
2019-03-26T04:22:12.493Z,8.69
2019-03-26T04:23:16.126Z,8.72
2019-03-26T04:24:19.789Z,8.82
2019-03-26T04:25:23.428Z,8.78
2019-03-26T04:26:28.014Z,8.67
2019-03-26T04:27:31.650Z,8.54
2019-03-26T04:28:35.329Z,8.55
2019-03-26T04:29:38.989Z,8.53
2019-03-26T04:30:43.075Z,8.50
2019-03-26T04:31:46.756Z,8.51
2019-03-26T04:32:50.396Z,8.54
2019-03-26T04:33:54.028Z,8.56
2019-03-26T04:34:57.697Z,8.58
2019-03-26T04:36:01.338Z,8.59
2019-03-26T04:37:04.979Z,8.62
2019-03-26T04:38:08.609Z,8.62
2019-03-26T04:39:12.237Z,8.65
2019-03-26T04:40:15.913Z,8.58
2019-03-26T04:41:19.612Z,8.46
2019-03-26T04:42:23.267Z,8.50
2019-03-26T04:43:26.904Z,8.54
2019-03-26T04:44:30.525Z,8.45
2019-03-26T04:45:34.554Z,8.49
2019-03-26T04:46:38.184Z,8.51
2019-03-26T04:47:41.892Z,8.52
2019-03-26T04:48:45.443Z,8.59
2019-03-26T04:49:49.063Z,8.63
2019-03-26T04:50:52.803Z,8.56
2019-03-26T04:51:56.450Z,8.53
2019-03-26T04:53:00.092Z,8.62
2019-03-26T04:54:03.734Z,8.73
2019-03-26T04:55:07.477Z,8.76
2019-03-26T04:56:11.156Z,8.87
2019-03-26T04:57:14.791Z,9.01
2019-03-26T04:58:18.430Z,8.94
2019-03-26T04:59:21.997Z,8.85
2019-03-26T05:00:25.633Z,8.72
2019-03-26T05:01:29.307Z,8.61
2019-03-26T05:02:33.533Z,8.49
2019-03-26T05:03:38.086Z,8.31
2019-03-26T05:04:42.017Z,8.20
2019-03-26T05:05:45.665Z,8.05
2019-03-26T05:06:49.342Z,8.17
2019-03-26T05:07:52.898Z,8.16
2019-03-26T05:08:56.543Z,8.07
2019-03-26T05:10:00.396Z,8.04
2019-03-26T05:11:04.150Z,8.13
2019-03-26T05:12:07.817Z,8.18
2019-03-26T05:13:11.459Z,8.27
2019-03-26T05:14:15.102Z,8.35
2019-03-26T05:15:18.800Z,8.34
2019-03-26T05:16:22.434Z,8.35
2019-03-26T05:17:26.079Z,8.36
2019-03-26T05:18:30.047Z,8.30
2019-03-26T05:19:34.072Z,8.32
2019-03-26T05:20:37.716Z,8.47
2019-03-26T05:21:43.010Z,8.56
2019-03-26T05:22:52.679Z,8.63
2019-03-26T05:23:57.886Z,8.68
2019-03-26T05:25:01.436Z,8.80
2019-03-26T05:26:06.940Z,8.99
2019-03-26T05:27:13.307Z,9.07
2019-03-26T05:28:17.146Z,9.23
2019-03-26T05:29:20.843Z,9.33
2019-03-26T05:30:24.487Z,9.39
2019-03-26T05:31:28.054Z,9.45
2019-03-26T05:32:31.694Z,9.60
2019-03-26T05:33:35.380Z,9.69
2019-03-26T05:34:38.967Z,9.73
2019-03-26T05:35:42.589Z,9.81
2019-03-26T05:36:51.488Z,9.84
2019-03-26T05:37:51.691Z,9.96
2019-03-26T05:38:57.367Z,9.96
2019-03-26T05:40:01.047Z,10.02
2019-03-26T05:41:04.699Z,10.11
2019-03-26T05:42:08.429Z,10.19
2019-03-26T05:43:12.080Z,10.25
2019-03-26T05:44:15.751Z,10.25
2019-03-26T05:45:19.416Z,10.31
2019-03-26T05:46:23.057Z,10.27
2019-03-26T05:47:26.702Z,10.31
2019-03-26T05:48:30.343Z,10.31
2019-03-26T05:49:34.019Z,10.42
2019-03-26T05:50:37.768Z,10.44
2019-03-26T05:51:41.411Z,10.64
2019-03-26T05:52:45.053Z,10.64
2019-03-26T05:53:48.690Z,10.72
2019-03-26T05:54:52.651Z,10.82
2019-03-26T05:55:56.293Z,10.82
2019-03-26T05:56:59.873Z,10.87
2019-03-26T05:58:03.522Z,10.87
2019-03-26T05:59:07.157Z,10.99
2019-03-26T06:00:14.534Z,10.99
2019-03-26T06:01:18.173Z,11.08
2019-03-26T06:02:21.830Z,11.08
2019-03-26T06:03:25.455Z,11.12
2019-03-26T06:04:29.104Z,11.22
2019-03-26T06:05:32.786Z,11.22
2019-03-26T06:06:36.465Z,11.27
2019-03-26T06:07:40.093Z,11.27
2019-03-26T06:08:43.745Z,11.24
2019-03-26T06:09:47.685Z,11.34
2019-03-26T06:10:51.401Z,11.38
2019-03-26T06:11:55.062Z,11.46
2019-03-26T06:12:58.734Z,11.55
2019-03-26T06:14:02.672Z,11.57
2019-03-26T06:15:08.751Z,11.59
2019-03-26T06:16:12.392Z,11.61
2019-03-26T06:17:16.073Z,11.60
2019-03-26T06:18:19.718Z,11.74
2019-03-26T06:19:23.337Z,11.74
2019-03-26T06:20:26.980Z,11.85
2019-03-26T06:21:30.611Z,11.85
2019-03-26T06:22:34.605Z,11.90
2019-03-26T06:23:38.244Z,11.95
2019-03-26T06:24:41.887Z,12.03
2019-03-26T06:25:45.544Z,12.03
2019-03-26T06:26:49.181Z,12.13
2019-03-26T06:27:52.844Z,12.22
2019-03-26T06:28:56.479Z,12.26
2019-03-26T06:30:00.043Z,12.24
2019-03-26T06:31:03.767Z,12.38
2019-03-26T06:32:07.843Z,12.38
2019-03-26T06:33:11.537Z,12.38
2019-03-26T06:34:15.170Z,12.42
2019-03-26T06:35:18.821Z,12.47
2019-03-26T06:36:22.462Z,12.47
2019-03-26T06:37:26.105Z,12.46
2019-03-26T06:38:29.782Z,12.21
2019-03-26T06:39:33.433Z,12.24
2019-03-26T06:40:40.029Z,12.21
2019-03-26T06:41:43.683Z,12.20
2019-03-26T06:42:47.315Z,12.27
2019-03-26T06:43:52.059Z,12.27
2019-03-26T06:44:55.704Z,12.22
2019-03-26T06:45:59.929Z,12.17
2019-03-26T06:47:03.559Z,12.29
2019-03-26T06:48:07.538Z,12.30
2019-03-26T06:49:11.210Z,12.39
2019-03-26T06:50:15.041Z,12.52
2019-03-26T06:51:18.682Z,12.56
2019-03-26T06:52:22.340Z,12.60
2019-03-26T06:53:26.051Z,12.65
2019-03-26T06:54:30.114Z,12.58
2019-03-26T06:55:33.760Z,12.74
2019-03-26T06:56:37.395Z,12.84
2019-03-26T06:57:41.056Z,12.87
2019-03-26T06:58:44.738Z,12.99
2019-03-26T06:59:48.550Z,13.06
2019-03-26T07:00:52.162Z,13.09
2019-03-26T07:01:56.326Z,13.15
2019-03-26T07:03:01.385Z,13.13
2019-03-26T07:04:05.022Z,13.24
2019-03-26T07:05:09.099Z,13.33
2019-03-26T07:06:12.753Z,13.36
2019-03-26T07:07:16.693Z,13.42
2019-03-26T07:08:20.338Z,13.46
2019-03-26T07:09:23.978Z,13.61
2019-03-26T07:10:29.326Z,13.61
2019-03-26T07:11:32.901Z,13.64
2019-03-26T07:12:36.550Z,13.69
2019-03-26T07:13:40.141Z,13.73
2019-03-26T07:14:43.784Z,13.97
2019-03-26T07:15:47.470Z,13.98
2019-03-26T07:16:51.105Z,14.08
2019-03-26T07:17:55.087Z,14.14
2019-03-26T07:18:58.722Z,14.12
2019-03-26T07:20:02.703Z,14.12
2019-03-26T07:21:06.366Z,14.22
2019-03-26T07:22:10.089Z,14.36
2019-03-26T07:23:13.726Z,14.43
2019-03-26T07:24:17.368Z,14.16
2019-03-26T07:25:21.018Z,14.14
2019-03-26T07:26:24.686Z,14.06
2019-03-26T07:27:28.329Z,14.20
2019-03-26T07:28:31.959Z,14.23
2019-03-26T07:29:35.600Z,14.33
2019-03-26T07:30:41.108Z,14.23
2019-03-26T07:31:45.062Z,14.03
2019-03-26T07:32:48.702Z,13.99
2019-03-26T07:33:52.374Z,14.02
2019-03-26T07:34:55.943Z,14.13
2019-03-26T07:35:59.575Z,14.11
2019-03-26T07:37:03.230Z,14.24
2019-03-26T07:38:06.874Z,14.30
2019-03-26T07:39:10.519Z,14.30
2019-03-26T07:40:14.721Z,14.32
2019-03-26T07:41:18.365Z,14.12
2019-03-26T07:42:22.048Z,14.13
2019-03-26T07:43:25.710Z,14.13
2019-03-26T07:44:29.332Z,14.20
2019-03-26T07:45:33.278Z,14.34
2019-03-26T07:46:36.919Z,14.63
2019-03-26T07:47:40.566Z,14.63
2019-03-26T07:48:44.220Z,14.59
2019-03-26T07:49:47.911Z,14.59
2019-03-26T07:50:51.552Z,14.43
2019-03-26T07:51:55.541Z,14.55
2019-03-26T07:52:59.216Z,14.75
2019-03-26T07:54:02.851Z,14.90
2019-03-26T07:55:08.295Z,15.11
2019-03-26T07:56:11.934Z,15.31
2019-03-26T07:57:17.514Z,15.42
2019-03-26T07:58:21.185Z,15.65
2019-03-26T07:59:24.821Z,15.96
2019-03-26T08:00:33.511Z,15.96
2019-03-26T08:01:37.154Z,15.75
2019-03-26T08:02:40.788Z,15.63
2019-03-26T08:03:44.455Z,15.44
2019-03-26T08:04:48.097Z,15.24
2019-03-26T08:05:51.754Z,15.12
2019-03-26T08:06:55.372Z,15.06
2019-03-26T08:07:59.107Z,14.97
2019-03-26T08:09:03.395Z,14.91
2019-03-26T08:10:08.444Z,14.83
2019-03-26T08:11:12.081Z,14.97
2019-03-26T08:12:15.716Z,15.03
2019-03-26T08:13:19.363Z,15.19
2019-03-26T08:14:23.126Z,15.27
2019-03-26T08:15:26.781Z,15.50
2019-03-26T08:16:30.474Z,15.61
2019-03-26T08:17:34.160Z,15.77
2019-03-26T08:18:37.760Z,16.03
2019-03-26T08:19:41.428Z,16.21
2019-03-26T08:20:45.046Z,16.39
2019-03-26T08:21:48.685Z,16.66
2019-03-26T08:22:52.392Z,16.76
2019-03-26T08:23:56.021Z,17.06
2019-03-26T08:24:59.698Z,17.29
2019-03-26T08:26:03.796Z,17.44
2019-03-26T08:27:10.776Z,17.56
2019-03-26T08:28:14.405Z,17.47
2019-03-26T08:29:18.044Z,17.32
2019-03-26T08:30:21.713Z,16.85
2019-03-26T08:31:28.549Z,16.47
2019-03-26T08:32:32.187Z,16.46
2019-03-26T08:33:35.820Z,16.46
2019-03-26T08:34:39.527Z,16.51
2019-03-26T08:35:43.268Z,16.44
2019-03-26T08:36:47.289Z,16.43
2019-03-26T08:37:50.993Z,16.68
2019-03-26T08:38:54.648Z,17.25
2019-03-26T08:39:58.215Z,17.37
2019-03-26T08:41:01.831Z,17.59
2019-03-26T08:42:05.476Z,17.87
2019-03-26T08:43:09.116Z,18.15
2019-03-26T08:44:13.199Z,18.46
2019-03-26T08:45:16.949Z,18.67
2019-03-26T08:46:20.935Z,18.78
2019-03-26T08:47:24.579Z,18.97
2019-03-26T08:48:28.232Z,19.02
2019-03-26T08:49:31.901Z,18.59
2019-03-26T08:50:35.540Z,18.26
2019-03-26T08:51:39.214Z,18.01
2019-03-26T08:52:42.857Z,17.76
2019-03-26T08:53:46.893Z,17.77
2019-03-26T08:54:50.728Z,17.60
2019-03-26T08:55:55.575Z,17.60
2019-03-26T08:57:00.716Z,17.33
2019-03-26T08:58:04.354Z,17.22
2019-03-26T08:59:07.992Z,16.90
2019-03-26T09:00:12.897Z,16.91
2019-03-26T09:01:16.534Z,17.00
2019-03-26T09:02:22.181Z,17.11
2019-03-26T09:03:25.887Z,16.87
2019-03-26T09:04:29.544Z,17.13
2019-03-26T09:05:33.167Z,17.28
2019-03-26T09:06:36.800Z,17.57
2019-03-26T09:07:40.634Z,17.96
2019-03-26T09:08:44.750Z,18.08
2019-03-26T09:09:48.737Z,17.91
2019-03-26T09:10:52.375Z,17.89
2019-03-26T09:11:57.938Z,17.69
2019-03-26T09:13:01.663Z,17.53
2019-03-26T09:14:05.616Z,17.12
2019-03-26T09:15:14.393Z,17.20
2019-03-26T09:16:17.184Z,17.34
2019-03-26T09:17:20.819Z,17.22
2019-03-26T09:18:24.660Z,17.09
2019-03-26T09:19:28.290Z,16.90
2019-03-26T09:20:31.924Z,16.83
2019-03-26T09:21:35.564Z,16.73
2019-03-26T09:22:39.206Z,16.51
2019-03-26T09:23:42.868Z,16.65
2019-03-26T09:24:46.550Z,16.78
2019-03-26T09:25:50.287Z,16.72
2019-03-26T09:26:53.975Z,16.66
2019-03-26T09:27:57.617Z,16.80
2019-03-26T09:29:01.216Z,17.00
2019-03-26T09:30:10.096Z,17.02
2019-03-26T09:31:13.787Z,17.03
2019-03-26T09:32:17.425Z,17.29
2019-03-26T09:33:21.064Z,17.47
2019-03-26T09:34:24.755Z,17.72
2019-03-26T09:35:28.387Z,17.77
2019-03-26T09:36:32.018Z,17.72
2019-03-26T09:37:35.660Z,17.65
2019-03-26T09:38:39.808Z,17.89
2019-03-26T09:39:43.479Z,18.04
2019-03-26T09:40:47.101Z,17.92
2019-03-26T09:41:50.737Z,18.02
2019-03-26T09:42:54.438Z,17.89
2019-03-26T09:43:58.095Z,18.03
2019-03-26T09:45:01.773Z,18.02
2019-03-26T09:46:05.415Z,18.01
2019-03-26T09:47:15.999Z,17.96
2019-03-26T09:48:14.415Z,17.84
2019-03-26T09:49:18.049Z,17.51
2019-03-26T09:50:24.769Z,17.54
2019-03-26T09:51:28.405Z,17.44
2019-03-26T09:52:32.218Z,17.27
2019-03-26T09:53:35.828Z,17.28
2019-03-26T09:54:39.466Z,17.15
2019-03-26T09:55:43.137Z,16.89
2019-03-26T09:56:47.064Z,17.17
2019-03-26T09:57:50.691Z,17.22
2019-03-26T09:58:54.248Z,17.24
2019-03-26T09:59:57.888Z,17.26
2019-03-26T10:01:01.674Z,17.13
2019-03-26T10:02:05.394Z,17.14
2019-03-26T10:03:10.014Z,17.53
2019-03-26T10:04:13.646Z,17.83
2019-03-26T10:05:17.285Z,18.07
2019-03-26T10:06:23.513Z,18.16
2019-03-26T10:07:26.446Z,18.39
2019-03-26T10:08:30.194Z,18.56
2019-03-26T10:09:33.858Z,18.87
2019-03-26T10:10:37.550Z,19.07
2019-03-26T10:11:41.185Z,19.13
2019-03-26T10:12:45.350Z,19.11
2019-03-26T10:13:48.967Z,19.31
2019-03-26T10:14:52.611Z,19.54
2019-03-26T10:15:56.255Z,19.79
2019-03-26T10:16:59.887Z,19.81
2019-03-26T10:18:03.622Z,19.74
2019-03-26T10:19:07.327Z,19.25
2019-03-26T10:20:11.265Z,19.09
2019-03-26T10:21:14.826Z,19.26
2019-03-26T10:22:20.063Z,19.15
2019-03-26T10:23:23.896Z,19.50
2019-03-26T10:24:27.536Z,19.60
2019-03-26T10:25:31.492Z,19.67
2019-03-26T10:26:35.198Z,19.72
2019-03-26T10:27:38.844Z,20.09
2019-03-26T10:28:43.007Z,20.27
2019-03-26T10:29:46.586Z,20.52
2019-03-26T10:30:50.239Z,20.46
2019-03-26T10:31:54.203Z,20.28
2019-03-26T10:32:57.841Z,20.06
2019-03-26T10:34:01.562Z,20.15
2019-03-26T10:35:06.032Z,20.49
2019-03-26T10:36:09.666Z,20.72
2019-03-26T10:37:13.315Z,20.43
2019-03-26T10:38:16.942Z,20.45
2019-03-26T10:39:20.732Z,20.75
2019-03-26T10:40:37.746Z,20.75
2019-03-26T10:41:41.661Z,21.01
2019-03-26T10:42:45.230Z,21.00
2019-03-26T10:43:48.867Z,21.10
2019-03-26T10:44:52.623Z,21.14
2019-03-26T10:45:56.261Z,21.30
2019-03-26T10:46:59.913Z,21.06
2019-03-26T10:48:03.651Z,20.40
2019-03-26T10:49:08.922Z,20.30
2019-03-26T10:50:13.911Z,20.65
2019-03-26T10:51:17.669Z,20.64
2019-03-26T10:52:21.407Z,20.54
2019-03-26T10:53:25.018Z,20.46
2019-03-26T10:54:28.656Z,20.16
2019-03-26T10:55:32.623Z,20.13
2019-03-26T10:56:36.849Z,20.16
2019-03-26T10:57:40.578Z,20.32
2019-03-26T10:58:44.372Z,20.65
2019-03-26T10:59:48.022Z,20.90
2019-03-26T11:00:51.692Z,21.31
2019-03-26T11:01:56.275Z,21.51
2019-03-26T11:02:59.984Z,21.43
2019-03-26T11:04:03.740Z,20.89
2019-03-26T11:05:07.746Z,20.65
2019-03-26T11:06:11.424Z,20.96
2019-03-26T11:07:15.064Z,20.86
2019-03-26T11:08:18.775Z,21.12
2019-03-26T11:09:26.871Z,21.17
2019-03-26T11:10:27.897Z,21.10
2019-03-26T11:11:31.722Z,21.14
2019-03-26T11:12:35.420Z,21.15
2019-03-26T11:13:39.071Z,21.08
2019-03-26T11:14:42.713Z,21.18
2019-03-26T11:15:46.406Z,21.30
2019-03-26T11:16:50.144Z,21.15
2019-03-26T11:17:53.780Z,20.47
2019-03-26T11:18:57.493Z,19.81
2019-03-26T11:20:01.129Z,19.40
2019-03-26T11:21:04.766Z,19.49
2019-03-26T11:22:08.653Z,19.56
2019-03-26T11:23:12.388Z,19.54
2019-03-26T11:24:16.033Z,19.41
2019-03-26T11:25:19.737Z,19.27
2019-03-26T11:26:23.372Z,19.07
2019-03-26T11:27:27.086Z,19.13
2019-03-26T11:28:30.735Z,19.18
2019-03-26T11:29:34.369Z,19.30
2019-03-26T11:30:38.016Z,19.26
2019-03-26T11:31:41.655Z,19.18
2019-03-26T11:32:45.324Z,19.18
2019-03-26T11:33:48.985Z,18.98
2019-03-26T11:34:52.556Z,18.89
2019-03-26T11:35:56.181Z,18.78
2019-03-26T11:36:59.837Z,18.53
2019-03-26T11:38:03.603Z,18.43
2019-03-26T11:42:03.403Z,18.05
2019-03-26T11:43:07.165Z,17.90
2019-03-26T11:44:10.844Z,17.72
2019-03-26T11:45:14.954Z,17.68
2019-03-26T11:46:18.752Z,17.70
2019-03-26T11:47:22.480Z,17.82
2019-03-26T11:48:26.092Z,17.67
2019-03-26T11:49:29.770Z,17.55
2019-03-26T11:50:33.485Z,17.57
2019-03-26T11:51:37.188Z,17.58
2019-03-26T11:52:41.019Z,17.56
2019-03-26T11:53:44.653Z,17.70
2019-03-26T11:54:48.337Z,17.75
2019-03-26T11:55:51.987Z,17.74
2019-03-26T11:56:55.618Z,17.70
2019-03-26T11:57:59.356Z,17.71
2019-03-26T11:59:03.044Z,17.72
2019-03-26T12:00:09.151Z,17.77
2019-03-26T12:01:12.793Z,17.54
2019-03-26T12:02:16.481Z,17.44
2019-03-26T12:03:20.154Z,17.27
2019-03-26T12:04:23.866Z,17.20
2019-03-26T12:05:27.528Z,17.18
2019-03-26T12:06:31.183Z,17.28
2019-03-26T12:07:34.821Z,17.23
2019-03-26T12:08:38.451Z,17.24
2019-03-26T12:09:46.573Z,17.14
2019-03-26T12:10:47.499Z,17.18
2019-03-26T12:11:51.125Z,17.29
2019-03-26T12:12:54.759Z,17.26
2019-03-26T12:13:58.390Z,17.20
2019-03-26T12:15:02.100Z,17.13
2019-03-26T12:16:06.150Z,16.72
2019-03-26T12:17:09.777Z,16.57
2019-03-26T12:18:13.419Z,16.47
2019-03-26T12:19:17.057Z,16.38
2019-03-26T12:20:20.787Z,16.38
2019-03-26T12:21:24.425Z,16.39
2019-03-26T12:22:31.224Z,16.40
2019-03-26T12:23:33.494Z,16.35
2019-03-26T12:24:37.214Z,16.19
2019-03-26T12:25:40.857Z,16.02
2019-03-26T12:26:44.540Z,15.94
2019-03-26T12:27:48.165Z,15.94
2019-03-26T12:28:51.804Z,15.93
2019-03-26T12:29:55.641Z,15.81
2019-03-26T12:30:59.351Z,15.83
2019-03-26T12:32:03.511Z,15.76
2019-03-26T12:33:07.627Z,15.89
2019-03-26T12:34:11.293Z,15.84
2019-03-26T12:35:23.597Z,15.89
2019-03-26T12:36:39.367Z,15.93
2019-03-26T12:37:33.015Z,15.98
2019-03-26T12:38:36.651Z,15.82
2019-03-26T12:39:40.356Z,15.75
2019-03-26T12:40:43.996Z,15.70
2019-03-26T12:41:47.653Z,15.64
2019-03-26T12:42:51.782Z,15.52
2019-03-26T12:43:55.418Z,15.33
2019-03-26T12:44:59.407Z,15.44
2019-03-26T12:46:03.162Z,15.47
2019-03-26T12:47:06.828Z,15.37
2019-03-26T12:48:10.475Z,14.97
2019-03-26T12:49:14.118Z,14.93
2019-03-26T12:50:17.755Z,14.98
2019-03-26T12:51:21.393Z,14.75
2019-03-26T12:52:25.109Z,14.75
2019-03-26T12:53:28.789Z,14.68
2019-03-26T12:54:32.502Z,14.42
2019-03-26T12:55:36.145Z,14.34
2019-03-26T12:56:39.773Z,14.33
2019-03-26T12:57:43.408Z,14.32
2019-03-26T12:58:47.079Z,14.17
2019-03-26T12:59:51.099Z,14.00
2019-03-26T13:00:54.710Z,14.02
2019-03-26T13:01:58.348Z,13.85
2019-03-26T13:03:02.682Z,13.84
2019-03-26T13:04:12.452Z,13.82
2019-03-26T13:05:11.712Z,13.79
2019-03-26T13:06:15.419Z,13.79
2019-03-26T13:07:19.102Z,13.72
2019-03-26T13:08:22.754Z,13.72
2019-03-26T13:09:26.432Z,13.86
2019-03-26T13:10:30.075Z,13.89
2019-03-26T13:11:33.791Z,13.97
2019-03-26T13:12:37.430Z,14.01
2019-03-26T13:13:41.070Z,13.77
2019-03-26T13:14:44.817Z,13.73
2019-03-26T13:15:48.451Z,13.79
2019-03-26T13:16:52.094Z,13.95
2019-03-26T13:17:55.738Z,13.93
2019-03-26T13:18:59.381Z,13.90
2019-03-26T13:20:03.067Z,14.01
2019-03-26T13:21:07.124Z,14.02
2019-03-26T13:22:10.830Z,13.97
2019-03-26T13:23:14.549Z,13.95
2019-03-26T13:24:18.187Z,13.90
2019-03-26T13:25:22.074Z,13.96
2019-03-26T13:26:26.203Z,14.01
2019-03-26T13:27:29.841Z,14.05
2019-03-26T13:28:33.495Z,14.05
2019-03-26T13:29:37.132Z,14.27
2019-03-26T13:30:40.807Z,14.07
2019-03-26T13:31:44.446Z,14.25
2019-03-26T13:32:48.093Z,14.25
2019-03-26T13:33:51.758Z,14.33
2019-03-26T13:34:55.556Z,14.45
2019-03-26T13:35:59.230Z,14.53
2019-03-26T13:37:02.871Z,14.58
2019-03-26T13:38:06.540Z,14.53
2019-03-26T13:39:10.579Z,14.44
2019-03-26T13:40:26.524Z,14.34
2019-03-26T13:41:21.649Z,14.25
2019-03-26T13:42:25.356Z,14.04
2019-03-26T13:43:29.356Z,13.89
2019-03-26T13:44:33.809Z,13.99
2019-03-26T13:45:37.516Z,13.90
2019-03-26T13:46:41.191Z,13.80
2019-03-26T13:47:44.827Z,13.86
2019-03-26T13:48:48.554Z,13.93
2019-03-26T13:49:52.190Z,13.84
2019-03-26T13:50:55.859Z,13.84
2019-03-26T13:51:59.454Z,13.90